Time;durP1;ratioP1;P1;durP2;ratioP2;P2;SDS_P1;SDS_P2;PMS_P1;PMS_P2;Temp;Humidity;BMP_temperature;BMP_pressure;BME280_temperature;BME280_humidity;BME280_pressure;Samples;Min_cycle;Max_cycle;Signal;HPM_P1;HPM_P2
2023/05/29 00:01:23;;;;;;;6.13;2.97;;;11.30;83.90;;;;;;5001038;28;20113;-85
2023/05/29 00:03:50;;;;;;;5.18;3.28;;;11.30;84.20;;;;;;4989462;28;20514;-85
2023/05/29 00:06:16;;;;;;;7.95;3.22;;;11.30;84.60;;;;;;5019518;28;20109;-83
2023/05/29 00:08:42;;;;;;;5.65;3.50;;;11.30;84.50;;;;;;5033586;28;20056;-86
2023/05/29 00:11:08;;;;;;;4.40;3.30;;;11.30;84.50;;;;;;5025170;28;20026;-84
2023/05/29 00:13:34;;;;;;;7.05;3.25;;;11.30;84.70;;;;;;5015424;28;20037;-85
2023/05/29 00:16:00;;;;;;;8.82;3.15;;;11.20;84.70;;;;;;5022830;28;20010;-85
2023/05/29 00:18:27;;;;;;;2.78;2.20;;;11.20;84.70;;;;;;5033089;28;20041;-84
2023/05/29 00:20:53;;;;;;;5.18;2.67;;;11.20;84.70;;;;;;5035550;28;20033;-85
2023/05/29 00:23:19;;;;;;;6.22;3.08;;;11.20;84.80;;;;;;5020578;28;20056;-85
2023/05/29 00:25:45;;;;;;;4.35;2.83;;;11.10;84.80;;;;;;5028323;28;20081;-85
2023/05/29 00:28:12;;;;;;;9.10;3.20;;;11.10;84.70;;;;;;5017845;28;20076;-85
2023/05/29 00:30:38;;;;;;;6.95;3.05;;;11.20;84.80;;;;;;4997105;28;20022;-87
2023/05/29 00:33:05;;;;;;;4.18;2.70;;;11.20;84.70;;;;;;5016342;28;20034;-85
2023/05/29 00:35:30;;;;;;;9.52;3.42;;;11.10;84.80;;;;;;4998909;28;20399;-82
2023/05/29 00:37:57;;;;;;;4.00;2.72;;;11.20;84.90;;;;;;5017888;28;20022;-86
2023/05/29 00:40:24;;;;;;;4.35;2.80;;;11.10;84.90;;;;;;5001362;28;20026;-85
2023/05/29 00:42:50;;;;;;;6.55;2.95;;;11.10;85.00;;;;;;5016334;28;20083;-85
2023/05/29 00:45:16;;;;;;;6.32;3.40;;;11.10;85.10;;;;;;5015142;28;20030;-84
2023/05/29 00:47:42;;;;;;;7.88;2.88;;;11.10;85.20;;;;;;5017505;28;20464;-84
2023/05/29 00:50:10;;;;;;;5.22;3.30;;;11.10;85.20;;;;;;5027745;28;20045;-84
2023/05/29 00:52:37;;;;;;;;;;;11.10;85.20;;;;;;5022576;28;20052;-86
2023/05/29 00:55:03;;;;;;;6.03;2.60;;;11.10;84.60;;;;;;5016224;28;19909;-85
2023/05/29 00:57:29;;;;;;;6.90;3.13;;;11.00;84.90;;;;;;5016404;28;20028;-86
2023/05/29 00:59:56;;;;;;;5.35;2.60;;;11.00;85.10;;;;;;5010355;28;20121;-83
2023/05/29 01:02:22;;;;;;;6.03;2.83;;;11.00;85.10;;;;;;5019088;28;20110;-86
2023/05/29 01:04:48;;;;;;;5.57;2.70;;;11.00;85.00;;;;;;4997515;28;20349;-86
2023/05/29 01:07:15;;;;;;;4.22;2.50;;;11.00;85.00;;;;;;4997379;28;20032;-86
2023/05/29 01:09:42;;;;;;;3.75;2.83;;;11.00;84.90;;;;;;5015070;28;20563;-86
2023/05/29 01:12:26;;;;;;;6.87;3.30;;;11.00;84.70;;;;;;5015699;28;20105;-86
2023/05/29 01:15:10;;;;;;;3.38;2.63;;;11.00;84.70;;;;;;5017052;28;20487;-86
2023/05/29 01:18:12;;;;;;;5.90;2.95;;;11.00;84.60;;;;;;5017041;28;20035;-83
2023/05/29 01:20:44;;;;;;;5.43;3.15;;;11.00;84.70;;;;;;4997727;28;20065;-85
2023/05/29 01:23:31;;;;;;;4.10;2.95;;;11.00;84.80;;;;;;4996930;28;20018;-84
2023/05/29 01:26:25;;;;;;;5.38;2.45;;;11.00;85.00;;;;;;5015064;28;20026;-85
2023/05/29 01:28:56;;;;;;;9.98;2.80;;;11.00;84.90;;;;;;5015133;28;20030;-85
2023/05/29 01:31:25;;;;;;;4.13;2.67;;;11.00;84.90;;;;;;5013112;28;20026;-85
2023/05/29 01:33:59;;;;;;;7.30;2.78;;;11.00;85.00;;;;;;5014505;28;20021;-85
2023/05/29 01:36:26;;;;;;;3.10;2.15;;;11.00;85.00;;;;;;5014268;28;20079;-84
2023/05/29 01:38:54;;;;;;;5.00;3.03;;;11.10;84.90;;;;;;4996082;28;20521;-86
2023/05/29 01:41:23;;;;;;;6.68;3.22;;;11.10;84.80;;;;;;5014974;28;20034;-84
2023/05/29 01:43:50;;;;;;;7.43;2.53;;;11.20;85.00;;;;;;5013155;28;20026;-85
2023/05/29 01:46:17;;;;;;;5.78;3.00;;;11.20;84.90;;;;;;5014641;28;20368;-84
2023/05/29 01:48:45;;;;;;;5.05;3.35;;;11.30;84.60;;;;;;4997539;28;20021;-85
2023/05/29 01:51:12;;;;;;;6.70;2.47;;;11.40;84.50;;;;;;5014887;28;20026;-84
2023/05/29 01:53:39;;;;;;;7.40;3.20;;;11.40;84.30;;;;;;5014138;28;20407;-85
2023/05/29 01:56:09;;;;;;;4.10;2.72;;;11.40;84.10;;;;;;5014871;28;20027;-85
2023/05/29 01:58:36;;;;;;;4.90;2.70;;;11.40;83.90;;;;;;5022447;28;20057;-84
2023/05/29 02:01:06;;;;;;;6.75;3.20;;;11.50;84.10;;;;;;5031816;28;20093;-85
2023/05/29 02:03:32;;;;;;;6.07;3.22;;;11.50;83.90;;;;;;5027783;28;20355;-86
2023/05/29 02:05:59;;;;;;;4.50;2.45;;;11.50;83.70;;;;;;5026556;28;20495;-84
2023/05/29 02:08:25;;;;;;;4.60;3.10;;;11.60;83.50;;;;;;5027732;28;20033;-84
2023/05/29 02:10:51;;;;;;;6.43;2.67;;;11.60;83.30;;;;;;5017909;28;20061;-84
2023/05/29 02:13:17;;;;;;;6.55;3.05;;;11.70;83.10;;;;;;5014913;28;20480;-83
2023/05/29 02:15:43;;;;;;;5.35;3.05;;;11.70;83.10;;;;;;5023127;28;20122;-84
2023/05/29 02:18:15;;;;;;;4.22;2.97;;;11.80;83.20;;;;;;5019351;28;20045;-84
2023/05/29 02:20:41;;;;;;;10.77;2.78;;;11.80;82.90;;;;;;4998460;28;20391;-84
2023/05/29 02:23:10;;;;;;;7.38;3.47;;;11.90;82.80;;;;;;5013974;28;20113;-83
2023/05/29 02:25:36;;;;;;;5.20;2.83;;;11.90;82.70;;;;;;5013996;28;20083;-86
2023/05/29 02:28:02;;;;;;;4.85;2.85;;;12.00;82.80;;;;;;5016824;28;20458;-85
2023/05/29 02:30:29;;;;;;;6.65;2.72;;;12.00;83.30;;;;;;5013772;28;20030;-85
2023/05/29 02:32:54;;;;;;;6.10;3.17;;;12.10;82.50;;;;;;5014204;28;20484;-84
2023/05/29 02:35:22;;;;;;;5.60;3.42;;;12.10;82.10;;;;;;5017193;28;20025;-85
2023/05/29 02:37:48;;;;;;;;;;;12.20;82.00;;;;;;4998855;28;20029;-84
2023/05/29 02:40:14;;;;;;;7.38;3.08;;;12.20;81.70;;;;;;5016078;28;20333;-85
2023/05/29 02:42:40;;;;;;;5.20;2.70;;;12.20;81.70;;;;;;4999715;28;20064;-85
2023/05/29 02:45:07;;;;;;;5.10;2.63;;;12.30;81.40;;;;;;5014168;28;20029;-83
2023/05/29 02:47:32;;;;;;;6.53;3.00;;;12.40;81.20;;;;;;5007581;28;20018;-85
2023/05/29 02:49:58;;;;;;;5.20;2.60;;;12.50;80.90;;;;;;5022259;28;20033;-85
2023/05/29 02:52:24;;;;;;;3.63;2.70;;;12.60;80.60;;;;;;5014249;28;20014;-84
2023/05/29 02:54:50;;;;;;;4.57;2.58;;;12.70;80.00;;;;;;5013518;28;20442;-84
2023/05/29 02:57:16;;;;;;;6.68;3.17;;;12.90;79.60;;;;;;5014347;28;20026;-85
2023/05/29 02:59:44;;;;;;;3.90;2.63;;;13.10;78.70;;;;;;5017970;28;20487;-84
2023/05/29 03:02:10;;;;;;;4.70;2.65;;;13.20;78.20;;;;;;5023737;28;20471;-87
2023/05/29 03:04:36;;;;;;;5.78;2.90;;;13.30;77.90;;;;;;4996550;28;20156;-85
2023/05/29 03:07:01;;;;;;;8.48;4.45;;;13.40;77.40;;;;;;5008229;28;20030;-84
2023/05/29 03:09:27;;;;;;;3.70;2.38;;;13.50;77.80;;;;;;5018208;28;20021;-84
2023/05/29 03:11:53;;;;;;;5.00;2.90;;;13.60;76.80;;;;;;5013416;28;20468;-85
2023/05/29 03:14:21;;;;;;;4.68;2.58;;;13.70;76.30;;;;;;5013951;28;20088;-85
2023/05/29 03:16:49;;;;;;;4.20;2.85;;;13.70;76.30;;;;;;5014023;28;20036;-83
2023/05/29 03:19:15;;;;;;;5.35;2.80;;;13.80;75.80;;;;;;5015584;28;20113;-86
2023/05/29 03:21:41;;;;;;;4.55;2.60;;;13.80;75.30;;;;;;5028360;28;20478;-86
2023/05/29 03:24:07;;;;;;;6.35;3.08;;;13.90;75.10;;;;;;4996964;28;20044;-85
2023/05/29 03:26:32;;;;;;;5.43;3.28;;;14.00;74.90;;;;;;5015415;28;20018;-85
2023/05/29 03:28:58;;;;;;;8.60;2.50;;;14.00;74.20;;;;;;5014002;28;20109;-84
2023/05/29 03:31:24;;;;;;;4.85;2.38;;;14.10;74.00;;;;;;5015001;28;20026;-84
2023/05/29 03:33:50;;;;;;;4.55;2.45;;;14.20;73.70;;;;;;4995708;28;20108;-84
2023/05/29 03:36:19;;;;;;;5.30;3.20;;;14.20;73.40;;;;;;5012105;28;20571;-85
2023/05/29 03:38:45;;;;;;;7.65;3.13;;;14.30;73.10;;;;;;5026384;28;20037;-83
2023/05/29 03:41:11;;;;;;;6.65;3.20;;;14.40;72.30;;;;;;5012984;28;20109;-84
2023/05/29 03:43:37;;;;;;;4.28;2.63;;;14.40;72.20;;;;;;4996762;28;20054;-85
2023/05/29 03:46:03;;;;;;;7.25;3.42;;;14.40;71.80;;;;;;4998125;28;20040;-84
2023/05/29 03:48:29;;;;;;;9.05;3.03;;;14.40;72.30;;;;;;4998866;28;20483;-84
2023/05/29 03:50:55;;;;;;;10.20;3.05;;;14.50;72.70;;;;;;5016920;28;20026;-85
2023/05/29 03:53:21;;;;;;;9.32;3.08;;;14.60;72.20;;;;;;5025069;28;20057;-85
2023/05/29 03:55:47;;;;;;;6.68;2.80;;;14.60;71.30;;;;;;5022540;28;20036;-85
2023/05/29 03:58:14;;;;;;;10.02;2.67;;;14.70;70.60;;;;;;5027341;28;20026;-84
2023/05/29 04:00:40;;;;;;;4.73;2.53;;;14.70;69.90;;;;;;5029793;28;20117;-85
2023/05/29 04:03:06;;;;;;;5.50;2.65;;;14.80;69.60;;;;;;5020210;28;20112;-84
2023/05/29 04:05:31;;;;;;;4.78;2.65;;;14.80;69.90;;;;;;5033632;28;20029;-85
2023/05/29 04:07:57;;;;;;;6.30;2.90;;;14.80;68.10;;;;;;5019663;28;20052;-84
2023/05/29 04:10:24;;;;;;;5.32;2.55;;;14.80;68.10;;;;;;5023237;28;20045;-85
2023/05/29 04:12:51;;;;;;;11.27;2.60;;;14.90;67.70;;;;;;5035945;28;20079;-85
2023/05/29 04:15:17;;;;;;;5.70;2.47;;;15.00;67.20;;;;;;5005035;28;20347;-84
2023/05/29 04:17:43;;;;;;;4.63;2.17;;;15.00;66.60;;;;;;5024369;28;20274;-84
2023/05/29 04:20:09;;;;;;;5.68;2.80;;;15.10;66.00;;;;;;5021204;28;20029;-86
2023/05/29 04:22:36;;;;;;;3.90;2.65;;;15.20;64.90;;;;;;5027803;28;20014;-85
2023/05/29 04:25:03;;;;;;;5.95;3.08;;;15.20;64.90;;;;;;5017136;28;20030;-85
2023/05/29 04:27:32;;;;;;;5.43;3.13;;;15.20;64.00;;;;;;5026131;28;20025;-84
2023/05/29 04:29:58;;;;;;;9.20;2.50;;;15.30;63.80;;;;;;5021234;28;20116;-84
2023/05/29 04:32:24;;;;;;;9.37;2.47;;;15.30;63.80;;;;;;5020875;28;20070;-86
2023/05/29 04:34:51;;;;;;;5.22;2.65;;;15.30;63.70;;;;;;5017682;28;20431;-87
2023/05/29 04:37:17;;;;;;;3.55;2.15;;;15.30;63.60;;;;;;5015646;28;20112;-83
2023/05/29 04:39:43;;;;;;;7.50;3.20;;;15.40;63.40;;;;;;4997803;28;20188;-84
2023/05/29 04:42:09;;;;;;;5.90;2.60;;;15.50;63.70;;;;;;5014455;28;20051;-85
2023/05/29 04:44:35;;;;;;;5.68;2.75;;;15.60;62.80;;;;;;5014874;28;20109;-85
2023/05/29 04:47:04;;;;;;;6.53;2.83;;;15.70;62.70;;;;;;5017546;28;20018;-85
2023/05/29 04:49:30;;;;;;;7.30;2.90;;;15.70;62.40;;;;;;5028580;28;20049;-84
2023/05/29 04:51:56;;;;;;;6.57;2.63;;;15.80;61.90;;;;;;5014396;28;20026;-86
2023/05/29 04:54:23;;;;;;;7.97;4.13;;;15.90;62.20;;;;;;5023288;28;20091;-84
2023/05/29 04:56:49;;;;;;;5.75;2.80;;;15.90;61.70;;;;;;5018365;28;20128;-86
2023/05/29 04:59:15;;;;;;;5.75;2.80;;;16.00;61.40;;;;;;5030557;28;20045;-85
2023/05/29 05:01:43;;;;;;;6.13;3.00;;;16.10;60.60;;;;;;5020236;28;20076;-87
2023/05/29 05:04:09;;;;;;;8.13;2.83;;;16.40;60.80;;;;;;5017654;28;20030;-87
2023/05/29 05:06:35;;;;;;;6.23;2.70;;;17.20;59.40;;;;;;5016801;28;20068;-86
2023/05/29 05:09:01;;;;;;;6.13;2.13;;;18.40;57.60;;;;;;5018060;28;20022;-85
2023/05/29 05:11:27;;;;;;;4.95;2.60;;;19.70;54.20;;;;;;5029964;28;20025;-87
2023/05/29 05:13:53;;;;;;;4.10;2.42;;;20.90;51.90;;;;;;5040378;28;20044;-88
2023/05/29 05:16:19;;;;;;;4.50;2.28;;;22.00;48.00;;;;;;5041436;28;20029;-87
2023/05/29 05:18:45;;;;;;;5.78;2.60;;;22.80;45.90;;;;;;5018952;28;20041;-84
2023/05/29 05:21:11;;;;;;;3.75;2.10;;;23.50;44.20;;;;;;5019730;28;20553;-86
2023/05/29 05:23:37;;;;;;;4.07;2.40;;;24.40;43.30;;;;;;5000714;28;20120;-88
2023/05/29 05:26:03;;;;;;;5.75;2.33;;;25.30;42.10;;;;;;5015190;28;20033;-85
2023/05/29 05:28:33;;;;;;;5.38;2.10;;;25.80;40.70;;;;;;5015781;28;20526;-86
2023/05/29 05:30:59;;;;;;;7.93;2.55;;;26.50;40.20;;;;;;5014141;28;20033;-84
2023/05/29 05:33:25;;;;;;;4.97;2.33;;;27.50;38.60;;;;;;5015609;28;20025;-83
2023/05/29 05:35:51;;;;;;;4.60;2.00;;;28.30;37.30;;;;;;5024042;28;20139;-86
2023/05/29 05:38:17;;;;;;;5.43;2.55;;;28.90;35.40;;;;;;5023387;28;20403;-85
2023/05/29 05:40:44;;;;;;;5.70;3.40;;;29.30;35.10;;;;;;5012829;28;20038;-89
2023/05/29 05:43:30;;;;;;;;;;;29.50;35.00;;;;;;5016365;28;20028;-88
2023/05/29 05:46:37;;;;;;;8.52;2.20;;;29.50;36.70;;;;;;5008762;28;19909;-90
2023/05/29 05:49:20;;;;;;;4.20;2.10;;;29.80;35.50;;;;;;4978605;28;20072;-89
2023/05/29 05:51:50;;;;;;;6.40;4.22;;;30.00;34.10;;;;;;5020197;28;20037;-86
2023/05/29 05:54:16;;;;;;;6.95;2.70;;;30.00;33.10;;;;;;5019655;28;20042;-89
2023/05/29 05:56:42;;;;;;;10.30;2.70;;;30.00;33.90;;;;;;5029757;28;20053;-88
2023/05/29 05:59:08;;;;;;;4.75;1.90;;;30.60;33.50;;;;;;5001454;28;20042;-89
2023/05/29 06:01:34;;;;;;;6.03;2.60;;;30.90;32.30;;;;;;5010562;28;20124;-89
2023/05/29 06:04:00;;;;;;;6.53;2.42;;;31.40;32.30;;;;;;5007783;28;20467;-89
2023/05/29 06:06:26;;;;;;;3.67;2.23;;;32.40;31.90;;;;;;5014528;28;20049;-87
2023/05/29 06:08:52;;;;;;;3.65;2.38;;;33.50;31.10;;;;;;4995416;28;20030;-88
2023/05/29 06:11:18;;;;;;;5.17;2.37;;;34.90;30.60;;;;;;4996126;28;20101;-88
2023/05/29 06:13:44;;;;;;;5.10;2.27;;;35.30;29.40;;;;;;4995740;28;20110;-87
2023/05/29 06:16:09;;;;;;;5.60;2.03;;;35.40;28.80;;;;;;4994442;28;20030;-88
2023/05/29 06:18:38;;;;;;;3.03;1.97;;;36.00;28.40;;;;;;5017756;28;20120;-88
2023/05/29 06:21:05;;;;;;;2.67;1.42;;;36.20;27.60;;;;;;5020711;28;20046;-89
2023/05/29 06:23:36;;;;;;;3.45;1.38;;;35.60;27.30;;;;;;5016593;28;20045;-88
2023/05/29 06:26:03;;;;;;;3.92;1.73;;;35.50;27.50;;;;;;5005923;28;20025;-89
2023/05/29 06:28:32;;;;;;;3.22;1.58;;;36.80;27.60;;;;;;5004011;28;20026;-89
2023/05/29 06:30:58;;;;;;;3.45;1.50;;;36.90;26.60;;;;;;5024553;28;20125;-91
2023/05/29 06:33:24;;;;;;;3.88;1.23;;;38.00;27.30;;;;;;5011812;28;20058;-88
2023/05/29 06:35:50;;;;;;;2.17;1.35;;;38.10;25.70;;;;;;4996664;28;20081;-89
2023/05/29 06:38:16;;;;;;;3.22;0.85;;;37.70;25.70;;;;;;4996234;28;20037;-88
2023/05/29 06:40:42;;;;;;;1.80;1.10;;;37.10;25.90;;;;;;5002695;28;20120;-89
2023/05/29 06:43:09;;;;;;;3.90;1.33;;;36.70;26.00;;;;;;5030872;28;20124;-88
2023/05/29 06:45:35;;;;;;;;;;;36.70;26.00;;;;;;5029949;28;20752;-89
2023/05/29 06:48:00;;;;;;;;;;;37.00;27.50;;;;;;5006754;28;19905;-88
2023/05/29 06:50:26;;;;;;;3.97;1.75;;;37.60;27.60;;;;;;5016144;28;19913;-90
2023/05/29 06:52:52;;;;;;;4.05;1.55;;;38.20;26.20;;;;;;5010480;28;20058;-90
2023/05/29 06:55:20;;;;;;;6.15;1.15;;;38.90;25.70;;;;;;5025578;28;20034;-89
2023/05/29 06:57:46;;;;;;;3.13;1.17;;;39.40;25.20;;;;;;5021468;28;20021;-91
2023/05/29 07:00:13;;;;;;;1.45;0.85;;;39.40;24.80;;;;;;5044074;28;20106;-90
2023/05/29 07:05:58;;;;;;;3.55;1.02;;;38.80;24.90;;;;;;4955114;28;20095;-88
2023/05/29 07:08:27;;;;;;;2.13;1.05;;;38.40;25.00;;;;;;4947231;28;20038;-90
2023/05/29 07:10:53;;;;;;;2.50;1.13;;;38.10;25.20;;;;;;4967125;28;20063;-89
2023/05/29 07:13:19;;;;;;;3.72;1.27;;;38.50;25.30;;;;;;4975499;28;20090;-90
2023/05/29 07:15:47;;;;;;;2.25;1.25;;;38.50;25.20;;;;;;4961597;29;20035;-90
2023/05/29 07:18:13;;;;;;;1.95;1.00;;;;;;;;;;4984774;28;20042;-89
2023/05/29 07:20:39;;;;;;;2.85;1.20;;;38.10;25.00;;;;;;4956811;29;20474;-88
2023/05/29 07:23:05;;;;;;;2.53;1.00;;;38.00;25.50;;;;;;4960080;28;20138;-90
2023/05/29 07:25:32;;;;;;;2.55;1.42;;;38.50;26.20;;;;;;4956114;28;20147;-89
2023/05/29 07:27:58;;;;;;;;;;;39.70;25.60;;;;;;4967123;28;20059;-88
2023/05/29 07:30:24;;;;;;;2.72;1.30;;;;;;;;;;4945159;28;19906;-89
2023/05/29 07:32:50;;;;;;;;;;;40.60;24.70;;;;;;4965240;28;20043;-89
2023/05/29 07:35:17;;;;;;;5.97;2.00;;;40.70;39.90;;;;;;4957875;28;20404;-89
2023/05/29 07:37:43;;;;;;;1.52;1.23;;;40.70;41.60;;;;;;4963263;28;20023;-85
2023/05/29 07:40:10;;;;;;;4.78;1.17;;;39.90;30.80;;;;;;4941923;28;20043;-87
2023/05/29 07:42:39;;;;;;;6.88;1.38;;;38.90;24.40;;;;;;4994329;28;20067;-86
2023/05/29 07:45:11;;;;;;;9.40;2.75;;;39.20;24.80;;;;;;5022300;28;20022;-89
2023/05/29 07:47:37;;;;;;;4.05;1.92;;;;;;;;;;5026899;28;20044;-88
2023/05/29 07:50:03;;;;;;;;;;;41.20;49.40;;;;;;5040429;28;20041;-89
2023/05/29 07:52:29;;;;;;;3.35;1.98;;;40.40;24.70;;;;;;5038892;28;19975;-88
2023/05/29 07:54:55;;;;;;;1.73;1.08;;;39.80;24.70;;;;;;5030820;28;20017;-86
2023/05/29 07:57:21;;;;;;;7.10;2.13;;;;;;;;;;5035109;28;20049;-89
2023/05/29 07:59:49;;;;;;;2.42;1.77;;;41.10;24.30;;;;;;5037113;28;20132;-90
2023/05/29 08:02:16;;;;;;;4.07;1.67;;;40.70;23.90;;;;;;5039720;28;20018;-91
2023/05/29 08:04:42;;;;;;;3.67;1.48;;;40.30;24.00;;;;;;5031237;28;20041;-88
2023/05/29 08:07:08;;;;;;;3.17;1.42;;;;;;;;;;5048922;28;20034;-89
2023/05/29 08:09:35;;;;;;;4.95;1.95;;;;;;;;;;5041455;28;20073;-89
2023/05/29 08:12:02;;;;;;;4.13;1.52;;;40.30;24.00;;;;;;5051364;28;20014;-89
2023/05/29 08:14:28;;;;;;;4.45;1.10;;;41.80;24.40;;;;;;5014353;28;20026;-89
2023/05/29 08:16:54;;;;;;;2.90;1.20;;;42.90;24.00;;;;;;5003032;28;20021;-90
2023/05/29 08:19:21;;;;;;;;;;;43.30;23.80;;;;;;5027614;28;20416;-90
2023/05/29 08:21:47;;;;;;;5.85;2.25;;;43.10;24.30;;;;;;5016231;28;19936;-91
2023/05/29 08:24:14;;;;;;;;;;;43.20;23.90;;;;;;5019854;28;20018;-88
2023/05/29 08:26:39;;;;;;;6.20;3.40;;;43.20;24.40;;;;;;5022356;28;19913;-90
2023/05/29 08:29:05;;;;;;;;;;;42.90;23.70;;;;;;5020344;28;20441;-88
2023/05/29 08:31:31;;;;;;;21.85;3.20;;;42.40;24.30;;;;;;5019271;28;19944;-91
2023/05/29 08:34:00;;;;;;;5.38;2.33;;;42.60;23.80;;;;;;5024479;28;20026;-92
2023/05/29 08:36:26;;;;;;;9.05;2.42;;;43.40;23.80;;;;;;5030087;28;20045;-87
2023/05/29 08:38:53;;;;;;;2.22;1.75;;;43.30;23.40;;;;;;5018601;28;20038;-88
2023/05/29 08:41:29;;;;;;;9.27;3.80;;;42.90;23.30;;;;;;5016154;28;20022;-82
2023/05/29 08:43:56;;;;;;;3.65;1.60;;;43.00;23.80;;;;;;5013307;28;20025;-84
2023/05/29 08:46:23;;;;;;;3.35;1.70;;;43.30;23.70;;;;;;5014500;28;20383;-83
2023/05/29 08:48:52;;;;;;;2.67;2.17;;;42.70;23.70;;;;;;5011975;28;20041;-83
2023/05/29 08:51:23;;;;;;;7.93;1.50;;;43.20;23.90;;;;;;5010324;28;20056;-84
2023/05/29 08:53:51;;;;;;;4.45;1.38;;;43.20;23.50;;;;;;5013973;28;20414;-84
2023/05/29 08:56:17;;;;;;;5.22;3.08;;;43.50;23.40;;;;;;5028646;28;20077;-82
2023/05/29 08:58:43;;;;;;;4.13;1.20;;;43.70;23.30;;;;;;5017715;28;20420;-81
2023/05/29 09:01:10;;;;;;;4.35;1.35;;;42.90;23.10;;;;;;5014378;28;20034;-81
2023/05/29 09:03:37;;;;;;;1.35;1.05;;;42.00;23.40;;;;;;5015531;28;20025;-82
2023/05/29 09:06:04;;;;;;;5.47;1.60;;;42.00;24.20;;;;;;5014957;28;20033;-86
2023/05/29 09:08:32;;;;;;;6.80;1.95;;;42.20;23.80;;;;;;5020466;28;20041;-84
2023/05/29 09:10:58;;;;;;;3.75;1.58;;;41.70;23.80;;;;;;5015359;28;20034;-85
2023/05/29 09:13:24;;;;;;;;;;;41.40;23.50;;;;;;5015539;28;20114;-83
2023/05/29 09:15:51;;;;;;;2.67;1.15;;;40.60;23.90;;;;;;5015693;28;20008;-83
2023/05/29 09:18:17;;;;;;;2.90;1.80;;;39.70;24.10;;;;;;5018504;28;20050;-85
2023/05/29 09:20:44;;;;;;;2.08;1.23;;;40.40;24.30;;;;;;5017143;28;20378;-81
2023/05/29 09:23:10;;;;;;;6.20;1.52;;;40.50;23.80;;;;;;5016628;28;20030;-83
2023/05/29 09:25:42;;;;;;;3.00;1.80;;;40.40;24.10;;;;;;5033544;28;20125;-82
2023/05/29 09:28:08;;;;;;;5.43;2.00;;;41.00;24.30;;;;;;4995297;28;20033;-84
2023/05/29 09:30:40;;;;;;;6.43;2.63;;;41.30;24.20;;;;;;5014394;28;20030;-88
2023/05/29 09:33:10;;;;;;;9.43;3.90;;;41.20;23.70;;;;;;5015539;28;20022;-84
2023/05/29 09:35:41;;;;;;;4.72;2.33;;;41.00;23.90;;;;;;5014286;28;20033;-83
2023/05/29 09:38:15;;;;;;;6.28;1.30;;;41.10;23.80;;;;;;5013642;28;20034;-84
2023/05/29 09:40:42;;;;;;;6.50;2.70;;;40.60;23.50;;;;;;5002498;28;20119;-81
2023/05/29 09:43:13;;;;;;;2.05;1.00;;;40.80;24.00;;;;;;5028919;28;20033;-83
2023/05/29 09:45:45;;;;;;;2.63;1.90;;;40.70;23.60;;;;;;5022151;28;20026;-83
2023/05/29 09:48:16;;;;;;;4.28;1.52;;;40.70;24.10;;;;;;5014679;28;20037;-83
2023/05/29 09:50:49;;;;;;;3.00;1.50;;;41.30;24.20;;;;;;5013785;28;20125;-81
2023/05/29 09:53:24;;;;;;;3.60;1.73;;;41.80;23.80;;;;;;5015955;28;20049;-84
2023/05/29 09:55:51;;;;;;;5.30;2.72;;;41.60;23.40;;;;;;5015823;28;20022;-81
2023/05/29 09:58:23;;;;;;;12.32;5.93;;;39.90;23.60;;;;;;5014850;28;20026;-83
2023/05/29 10:00:53;;;;;;;5.78;2.30;;;39.00;24.30;;;;;;5013763;28;20030;-81
2023/05/29 10:03:23;;;;;;;4.05;1.88;;;39.20;24.50;;;;;;5016082;28;20025;-80
2023/05/29 10:05:51;;;;;;;4.93;1.98;;;39.70;24.30;;;;;;5014196;28;20050;-81
2023/05/29 10:08:20;;;;;;;4.03;1.95;;;40.30;24.00;;;;;;5012969;28;20036;-80
2023/05/29 10:10:53;;;;;;;5.32;1.90;;;40.30;23.80;;;;;;5013190;28;20063;-80
2023/05/29 10:13:23;;;;;;;2.17;1.30;;;39.40;24.20;;;;;;5012106;28;20022;-80
2023/05/29 10:15:52;;;;;;;2.28;1.30;;;39.50;23.80;;;;;;5013134;28;20041;-82
2023/05/29 10:18:34;;;;;;;2.90;1.55;;;39.40;24.00;;;;;;5011376;28;20095;-81
2023/05/29 10:21:01;;;;;;;5.28;2.00;;;38.60;24.30;;;;;;5013016;28;20029;-84
2023/05/29 10:23:29;;;;;;;6.07;3.70;;;38.60;24.50;;;;;;4994830;28;20033;-81
2023/05/29 10:26:23;;;;;;;8.70;2.83;;;38.90;24.40;;;;;;5012957;28;20403;-82
2023/05/29 10:28:59;;;;;;;3.25;1.83;;;37.40;24.50;;;;;;4991935;28;20081;-91
2023/05/29 10:31:30;;;;;;;;;;;34.70;24.90;;;;;;5006852;28;20025;-84
2023/05/29 10:34:19;;;;;;;4.32;1.70;;;32.40;25.30;;;;;;5013725;28;19909;-81
2023/05/29 10:36:49;;;;;;;7.50;3.20;;;30.20;27.00;;;;;;5024359;28;20029;-81
2023/05/29 10:39:16;;;;;;;3.85;2.33;;;28.50;28.50;;;;;;4998369;28;20041;-82
2023/05/29 10:41:42;;;;;;;1.90;1.60;;;27.30;28.60;;;;;;5013020;28;20101;-82
2023/05/29 10:44:32;;;;;;;8.65;3.15;;;26.30;29.20;;;;;;5012811;28;20347;-81
2023/05/29 10:47:05;;;;;;;6.35;2.10;;;25.50;29.70;;;;;;5012752;28;20037;-82
2023/05/29 10:49:31;;;;;;;3.50;2.10;;;25.00;30.30;;;;;;5013281;28;20018;-82
2023/05/29 10:51:58;;;;;;;2.50;1.87;;;24.60;30.90;;;;;;5012035;28;20018;-81
2023/05/29 10:54:26;;;;;;;7.03;4.13;;;24.10;30.70;;;;;;4993421;28;20058;-84
2023/05/29 10:56:57;;;;;;;4.43;2.28;;;23.70;30.90;;;;;;4996813;28;20022;-82
2023/05/29 10:59:27;;;;;;;6.32;3.80;;;23.50;30.70;;;;;;5008486;28;20038;-84
2023/05/29 11:01:54;;;;;;;3.35;2.60;;;23.30;31.00;;;;;;5004146;28;20039;-82
2023/05/29 11:04:20;;;;;;;4.15;2.03;;;23.30;31.40;;;;;;5002369;28;20031;-83
2023/05/29 11:06:46;;;;;;;4.35;2.97;;;23.20;31.50;;;;;;5007597;28;20037;-81
2023/05/29 11:09:34;;;;;;;6.73;2.03;;;23.00;33.00;;;;;;4992797;28;20038;-82
2023/05/29 11:12:25;;;;;;;4.32;2.63;;;22.80;32.90;;;;;;5008241;28;20115;-85
2023/05/29 11:15:02;;;;;;;3.38;1.85;;;22.70;33.40;;;;;;4991806;28;20157;-82
2023/05/29 11:17:39;;;;;;;6.13;2.45;;;22.70;33.30;;;;;;4982860;28;20054;-82
2023/05/29 11:20:07;;;;;;;3.47;1.65;;;22.60;33.20;;;;;;4992537;28;20077;-82
2023/05/29 11:22:40;;;;;;;7.30;3.20;;;22.50;33.50;;;;;;4994343;28;20027;-82
2023/05/29 11:25:07;;;;;;;3.40;1.75;;;22.50;34.20;;;;;;5013799;28;20027;-82
2023/05/29 11:27:33;;;;;;;;;;;22.40;33.60;;;;;;5000319;28;20125;-82
2023/05/29 11:29:59;;;;;;;5.53;1.73;;;22.30;33.10;;;;;;5001474;28;20359;-80
2023/05/29 11:32:29;;;;;;;4.35;2.05;;;22.20;34.50;;;;;;4998354;28;20053;-84
2023/05/29 11:35:00;;;;;;;2.17;1.42;;;22.00;34.90;;;;;;5000313;28;20031;-83
2023/05/29 11:37:26;;;;;;;5.43;1.65;;;21.90;34.50;;;;;;5010705;28;20018;-81
2023/05/29 11:39:52;;;;;;;4.45;1.80;;;21.80;35.10;;;;;;4999373;28;20034;-82
2023/05/29 11:42:17;;;;;;;3.15;1.80;;;21.70;35.90;;;;;;5008662;28;20026;-82
2023/05/29 11:44:43;;;;;;;5.82;3.45;;;21.70;36.10;;;;;;5008785;28;20037;-82
2023/05/29 11:47:09;;;;;;;6.28;2.80;;;21.70;37.00;;;;;;4992861;28;20026;-82
2023/05/29 11:49:36;;;;;;;2.40;1.88;;;21.80;36.50;;;;;;4991872;28;20085;-80
2023/05/29 11:52:07;;;;;;;;;;;21.80;36.10;;;;;;4993235;28;20089;-89
2023/05/29 11:54:35;;;;;;;4.28;2.05;;;21.80;35.60;;;;;;5014769;28;20371;-89
2023/05/29 11:57:04;;;;;;;3.45;1.90;;;21.90;36.50;;;;;;5010933;28;20503;-84
2023/05/29 11:59:33;;;;;;;3.20;1.73;;;21.90;36.80;;;;;;5011687;28;20317;-82
2023/05/29 12:02:02;;;;;;;2.25;1.45;;;21.90;36.10;;;;;;5000240;28;20026;-84
2023/05/29 12:04:28;;;;;;;4.75;1.95;;;21.90;36.30;;;;;;5011245;28;20029;-83
2023/05/29 12:06:54;;;;;;;7.05;2.70;;;21.90;36.10;;;;;;5013040;28;20037;-83
2023/05/29 12:09:28;;;;;;;4.05;1.95;;;21.80;36.50;;;;;;5012227;28;20045;-82
2023/05/29 12:12:04;;;;;;;5.15;2.17;;;21.80;37.20;;;;;;4990204;28;20026;-83
2023/05/29 12:14:30;;;;;;;5.55;3.20;;;21.80;37.00;;;;;;5013226;28;20018;-83
2023/05/29 12:16:56;;;;;;;2.10;1.40;;;21.90;36.60;;;;;;5021955;28;20034;-82
2023/05/29 12:19:22;;;;;;;3.55;1.63;;;22.00;35.40;;;;;;5008451;28;20085;-83
2023/05/29 12:21:49;;;;;;;3.58;1.98;;;21.90;35.50;;;;;;4995457;28;20026;-85
2023/05/29 12:24:15;;;;;;;6.30;1.63;;;21.90;35.70;;;;;;4997018;28;20487;-85
2023/05/29 12:26:42;;;;;;;3.63;1.67;;;21.80;35.60;;;;;;5014974;28;20061;-83
2023/05/29 12:29:08;;;;;;;4.47;1.80;;;21.70;36.00;;;;;;5018115;28;20554;-84
2023/05/29 12:31:34;;;;;;;3.08;1.98;;;21.80;36.10;;;;;;5014756;28;20030;-81
2023/05/29 12:34:09;;;;;;;3.97;1.67;;;21.80;35.90;;;;;;4999279;28;20483;-82
2023/05/29 12:36:35;;;;;;;5.35;2.22;;;21.90;35.90;;;;;;5015074;28;20026;-83
2023/05/29 12:39:08;;;;;;;4.57;1.60;;;21.80;36.10;;;;;;4998061;28;20041;-82
2023/05/29 12:41:35;;;;;;;5.93;2.25;;;21.90;36.00;;;;;;5013453;28;20026;-82
2023/05/29 12:44:03;;;;;;;6.32;1.92;;;21.90;36.10;;;;;;4996022;28;20505;-82
2023/05/29 12:46:37;;;;;;;2.60;1.80;;;22.00;35.90;;;;;;4996794;28;20079;-83
2023/05/29 12:49:20;;;;;;;5.22;1.88;;;21.90;35.60;;;;;;4996290;28;20022;-86
2023/05/29 12:51:46;;;;;;;5.28;1.48;;;21.90;36.20;;;;;;4997603;28;20026;-85
2023/05/29 12:54:16;;;;;;;4.10;1.70;;;21.90;35.20;;;;;;5015587;28;20368;-84
2023/05/29 12:56:42;;;;;;;5.93;2.20;;;21.80;35.00;;;;;;5013958;28;20053;-83
2023/05/29 12:59:09;;;;;;;4.95;2.65;;;21.80;35.90;;;;;;5014620;28;20124;-83
2023/05/29 13:01:40;;;;;;;2.42;1.90;;;21.80;35.80;;;;;;4996362;28;20029;-82